Time;durP1;ratioP1;P1;durP2;ratioP2;P2;SDS_P1;SDS_P2;PMS_P1;PMS_P2;Temp;Humidity;BMP_temperature;BMP_pressure;BME280_temperature;BME280_humidity;BME280_pressure;Samples;Min_cycle;Max_cycle;Signal;HPM_P1;HPM_P2
2022/05/18 00:02:15;;;;;;;;;;;;;;;23.04;64.95;96852.78;615739;230;67091;-77
2022/05/18 00:04:42;;;;;;;;;;;;;;;23.03;65.20;96829.76;612082;229;66863;-77
2022/05/18 00:07:10;;;;;;;;;;;;;;;23.03;65.15;96828.97;612106;232;65490;-77
2022/05/18 00:09:38;;;;;;;;;;;;;;;23.03;65.22;96823.61;612049;232;64521;-77
2022/05/18 00:12:05;;;;;;;;;;;;;;;23.04;65.60;96814.47;610309;232;66748;-76
2022/05/18 00:14:33;;;;;;;;;;;;;;;23.03;65.19;96796.81;610093;230;65510;-76
2022/05/18 00:17:03;;;;;;;;;;;;;;;23.03;65.66;96800.28;610097;232;67033;-76
2022/05/18 00:19:30;;;;;;;;;;;;;;;23.03;65.17;96786.09;610091;232;65108;-76
2022/05/18 00:21:57;;;;;;;;;;;;;;;23.02;64.94;96777.23;610171;231;65330;-77
2022/05/18 00:24:25;;;;;;;;;;;;;;;23.03;65.53;96780.73;610090;232;67128;-77
2022/05/18 00:26:53;;;;;;;;;;;;;;;23.04;65.05;96787.67;610122;230;66921;-77
2022/05/18 00:29:21;;;;;;;;;;;;;;;23.04;64.86;96790.35;610099;232;65701;-76
2022/05/18 00:31:48;;;;;;;;;;;;;;;23.02;64.86;96785.27;610121;232;67032;-74
2022/05/18 00:34:16;;;;;;;;;;;;;;;23.03;65.55;96784.20;610177;232;64575;-74
2022/05/18 00:36:44;;;;;;;;;;;;;;;23.03;64.88;96786.88;610184;232;63134;-74
2022/05/18 00:39:11;;;;;;;;;;;;;;;23.03;65.79;96778.05;610115;232;66455;-74
2022/05/18 00:41:39;;;;;;;;;;;;;;;23.03;65.22;96767.33;610098;232;66635;-74
2022/05/18 00:44:06;;;;;;;;;;;;;;;23.02;65.70;96766.51;610109;232;65386;-74
2022/05/18 00:46:34;;;;;;;;;;;;;;;23.03;64.62;96767.33;610181;230;67076;-74
2022/05/18 00:49:03;;;;;;;;;;;;;;;23.02;65.16;96760.36;610135;230;66657;-74
2022/05/18 00:51:32;;;;;;;;;;;;;;;23.02;64.97;96758.47;610131;232;65288;-74
2022/05/18 00:54:01;;;;;;;;;;;;;;;23.02;65.15;96746.95;610001;230;64341;-74
2022/05/18 00:56:36;;;;;;;;;;;;;;;23.02;65.81;96736.23;609895;232;64566;-74
2022/05/18 00:59:05;;;;;;;;;;;;;;;23.02;65.75;96733.55;610026;231;65127;-74
2022/05/18 01:01:33;;;;;;;;;;;;;;;23.01;65.47;96729.30;610193;232;67590;-74
2022/05/18 01:04:02;;;;;;;;;;;;;;;23.01;65.42;96710.53;614894;230;66875;-74
2022/05/18 01:06:31;;;;;;;;;;;;;;;23.01;64.55;96723.94;616459;230;64947;-74
2022/05/18 01:09:03;;;;;;;;;;;;;;;23.02;64.93;96706.75;616438;230;67426;-74
2022/05/18 01:11:31;;;;;;;;;;;;;;;23.02;65.92;96699.50;616158;230;66882;-74
2022/05/18 01:13:59;;;;;;;;;;;;;;;23.02;65.60;96698.72;616521;230;63897;-74
2022/05/18 01:16:28;;;;;;;;;;;;;;;23.01;65.58;96691.77;616465;230;66981;-74
2022/05/18 01:18:57;;;;;;;;;;;;;;;23.01;65.46;96691.77;616442;230;67480;-74
2022/05/18 01:21:29;;;;;;;;;;;;;;;23.01;65.27;96697.13;616420;230;65332;-74
2022/05/18 01:24:04;;;;;;;;;;;;;;;23.02;65.32;96693.35;616295;230;67018;-74
2022/05/18 01:26:42;;;;;;;;;;;;;;;23.02;66.10;96696.03;616282;230;64373;-74
2022/05/18 01:29:10;;;;;;;;;;;;;;;23.01;65.44;96692.56;616161;230;62978;-74
2022/05/18 01:31:47;;;;;;;;;;;;;;;23.01;66.27;96681.84;616427;230;64453;-74
2022/05/18 01:34:15;;;;;;;;;;;;;;;23.00;65.93;96685.63;616410;230;65118;-74
2022/05/18 01:36:43;;;;;;;;;;;;;;;23.00;65.22;96690.98;616479;229;65331;-74
2022/05/18 01:39:12;;;;;;;;;;;;;;;23.01;65.54;96686.41;616472;230;67050;-74
2022/05/18 01:41:41;;;;;;;;;;;;;;;23.00;65.84;96685.63;616479;230;66903;-75
2022/05/18 01:44:09;;;;;;;;;;;;;;;23.00;65.85;96690.19;616399;230;62609;-74
2022/05/18 01:46:36;;;;;;;;;;;;;;;23.01;65.60;96699.81;616455;230;64980;-74
2022/05/18 01:49:04;;;;;;;;;;;;;;;23.00;65.60;96696.34;616461;230;64771;-74
2022/05/18 01:51:33;;;;;;;;;;;;;;;23.00;65.93;96706.27;616479;230;65120;-74
2022/05/18 01:54:01;;;;;;;;;;;;;;;23.00;65.62;96703.59;616454;230;64434;-74
2022/05/18 01:56:28;;;;;;;;;;;;;;;23.00;65.64;96707.06;616505;230;66971;-74
2022/05/18 01:58:56;;;;;;;;;;;;;;;22.99;65.92;96696.62;616406;230;65836;-74
2022/05/18 02:01:24;;;;;;;;;;;;;;;22.99;65.63;96696.62;616350;230;67134;-74
2022/05/18 02:03:51;;;;;;;;;;;;;;;23.00;65.79;96696.34;616450;230;66895;-75
2022/05/18 02:06:19;;;;;;;;;;;;;;;23.00;65.63;96706.27;616511;230;65134;-75
2022/05/18 02:08:47;;;;;;;;;;;;;;;22.99;66.30;96694.73;616503;230;67844;-74
2022/05/18 02:11:15;;;;;;;;;;;;;;;22.99;65.62;96700.09;616421;230;66861;-74
2022/05/18 02:13:43;;;;;;;;;;;;;;;23.00;66.16;96701.70;616454;230;62977;-74
2022/05/18 02:16:11;;;;;;;;;;;;;;;22.99;66.52;96689.38;616515;230;64964;-74
2022/05/18 02:18:39;;;;;;;;;;;;;;;22.99;66.30;96688.58;616498;230;64836;-74
2022/05/18 02:21:08;;;;;;;;;;;;;;;22.99;65.50;96689.38;616510;230;65090;-74
2022/05/18 02:23:36;;;;;;;;;;;;;;;22.99;66.30;96686.69;616432;230;67063;-74
2022/05/18 02:26:07;;;;;;;;;;;;;;;22.99;65.91;96684.02;616492;230;66989;-74
2022/05/18 02:28:35;;;;;;;;;;;;;;;22.99;66.44;96678.66;616473;230;65285;-74
2022/05/18 02:31:02;;;;;;;;;;;;;;;22.98;66.02;96676.28;616505;230;67181;-74
2022/05/18 02:33:30;;;;;;;;;;;;;;;22.99;66.60;96680.54;616546;230;66884;-74
2022/05/18 02:35:57;;;;;;;;;;;;;;;22.99;66.63;96683.22;616491;230;65118;-74
2022/05/18 02:38:25;;;;;;;;;;;;;;;22.98;66.83;96687.00;616458;230;67184;-74
2022/05/18 02:40:52;;;;;;;;;;;;;;;22.98;66.59;96685.11;616519;230;64382;-74
2022/05/18 02:43:20;;;;;;;;;;;;;;;22.97;66.44;96685.39;616504;230;63008;-75
2022/05/18 02:45:47;;;;;;;;;;;;;;;22.98;66.35;96678.96;616520;230;67065;-75
2022/05/18 02:48:15;;;;;;;;;;;;;;;22.97;66.76;96680.85;616454;230;68102;-75
2022/05/18 02:50:47;;;;;;;;;;;;;;;22.98;66.62;96687.00;616442;230;65122;-74
2022/05/18 02:53:11;;;;;;;;;;;;;;;22.97;66.40;96686.20;616381;230;64868;-74
2022/05/18 02:58:25;;;;;;;;;;;;;;;22.98;66.17;96687.00;616489;230;63143;-75
2022/05/18 03:00:53;;;;;;;;;;;;;;;22.98;66.35;96687.00;616525;230;67069;-74
2022/05/18 03:03:20;;;;;;;;;;;;;;;22.97;66.59;96690.75;616433;230;64727;-75
2022/05/18 03:05:48;;;;;;;;;;;;;;;22.97;66.28;96683.53;616493;230;63010;-76
2022/05/18 03:08:15;;;;;;;;;;;;;;;22.96;66.88;96687.28;616475;230;64487;-75
2022/05/18 03:10:43;;;;;;;;;;;;;;;22.97;66.36;96691.57;616500;230;67083;-75
2022/05/18 03:13:10;;;;;;;;;;;;;;;22.97;66.24;96690.75;616479;230;65191;-76
2022/05/18 03:15:38;;;;;;;;;;;;;;;22.98;66.29;96695.04;616475;230;67261;-76
2022/05/18 03:18:05;;;;;;;;;;;;;;;22.98;66.80;96689.68;616446;230;66836;-76
2022/05/18 03:23:33;;;;;;;;;;;;;;;22.97;66.81;96701.47;616464;230;64896;-75
2022/05/18 03:26:08;;;;;;;;;;;;;;;22.97;66.50;96701.47;616486;230;67001;-75
2022/05/18 03:28:36;;;;;;;;;;;;;;;22.96;66.87;96700.68;616500;230;63103;-75
2022/05/18 03:31:05;;;;;;;;;;;;;;;22.96;66.25;96694.53;616572;230;67827;-75
2022/05/18 03:33:33;;;;;;;;;;;;;;;22.96;66.59;96710.61;616485;230;66849;-75
2022/05/18 03:36:00;;;;;;;;;;;;;;;22.96;66.81;96699.89;616456;230;65514;-75
2022/05/18 03:38:28;;;;;;;;;;;;;;;22.96;66.85;96710.61;616458;230;67313;-75
2022/05/18 03:40:55;;;;;;;;;;;;;;;22.96;67.14;96710.61;616420;230;66936;-75
2022/05/18 03:43:23;;;;;;;;;;;;;;;22.96;67.05;96710.61;616548;230;65470;-75
2022/05/18 03:45:51;;;;;;;;;;;;;;;22.96;66.60;96715.97;616464;230;67221;-75
2022/05/18 03:48:19;;;;;;;;;;;;;;;22.96;66.72;96715.97;616495;230;66874;-75
2022/05/18 03:50:47;;;;;;;;;;;;;;;22.95;67.62;96717.03;616453;230;65214;-75
2022/05/18 03:53:16;;;;;;;;;;;;;;;22.94;67.25;96721.57;616458;230;64684;-75
2022/05/18 03:55:44;;;;;;;;;;;;;;;22.95;67.10;96725.07;616569;230;64545;-75
2022/05/18 03:58:12;;;;;;;;;;;;;;;22.96;66.76;96729.36;616205;230;65174;-75
2022/05/18 04:00:41;;;;;;;;;;;;;;;22.95;67.33;96725.07;616482;230;64911;-75
2022/05/18 04:03:09;;;;;;;;;;;;;;;22.96;67.07;96734.72;614010;230;67263;-75
2022/05/18 04:05:40;;;;;;;;;;;;;;;22.96;67.45;96745.44;610854;232;65533;-75
2022/05/18 04:08:09;;;;;;;;;;;;;;;22.95;67.17;96746.52;610083;232;64829;-75
2022/05/18 04:10:38;;;;;;;;;;;;;;;22.93;67.71;96738.75;609997;232;64801;-75
2022/05/18 04:13:07;;;;;;;;;;;;;;;22.94;66.78;96739.54;610101;232;65515;-74
2022/05/18 04:15:34;;;;;;;;;;;;;;;22.95;67.58;96743.83;610128;232;65068;-74
2022/05/18 04:18:02;;;;;;;;;;;;;;;22.93;67.43;96741.42;610126;232;65668;-74
2022/05/18 04:20:30;;;;;;;;;;;;;;;22.95;68.20;96746.52;610072;232;63858;-74
2022/05/18 04:22:57;;;;;;;;;;;;;;;22.94;67.91;96744.90;610145;232;65490;-74
2022/05/18 04:25:26;;;;;;;;;;;;;;;22.94;67.51;96750.25;610128;232;65791;-74
2022/05/18 04:27:54;;;;;;;;;;;;;;;22.93;68.38;96754.83;610090;232;66306;-74
2022/05/18 04:30:24;;;;;;;;;;;;;;;22.94;68.37;96755.62;610109;232;67483;-74
2022/05/18 04:32:58;;;;;;;;;;;;;;;22.93;67.93;96762.86;610003;231;67032;-74
2022/05/18 04:35:28;;;;;;;;;;;;;;;22.93;68.32;96760.19;610055;232;44354;-74
2022/05/18 04:37:57;;;;;;;;;;;;;;;22.94;68.20;96771.70;610076;232;65066;-74
2022/05/18 04:40:28;;;;;;;;;;;;;;;22.93;67.17;96773.58;609973;232;67812;-74
2022/05/18 04:42:59;;;;;;;;;;;;;;;22.94;67.80;96771.70;610119;231;65391;-74
2022/05/18 04:45:26;;;;;;;;;;;;;;;22.93;67.98;96762.07;610106;232;66910;-74
2022/05/18 04:47:54;;;;;;;;;;;;;;;22.93;68.55;96762.07;610157;232;64616;-74
2022/05/18 04:50:22;;;;;;;;;;;;;;;22.93;67.45;96764.75;610185;232;65133;-76
2022/05/18 04:52:49;;;;;;;;;;;;;;;22.93;68.73;96764.75;610112;232;65485;-76
2022/05/18 04:55:19;;;;;;;;;;;;;;;22.92;68.33;96763.17;610007;230;66656;-76
2022/05/18 04:57:47;;;;;;;;;;;;;;;22.93;67.94;96759.39;610102;230;62277;-75
2022/05/18 05:00:15;;;;;;;;;;;;;;;22.92;68.98;96757.81;609815;232;64475;-76
2022/05/18 05:02:43;;;;;;;;;;;;;;;22.92;68.43;96763.17;610267;231;66655;-76
2022/05/18 05:05:12;;;;;;;;;;;;;;;22.92;67.31;96768.53;614134;230;65127;-75
2022/05/18 05:07:40;;;;;;;;;;;;;;;22.91;68.66;96761.55;616394;230;66931;-75
2022/05/18 05:10:08;;;;;;;;;;;;;;;22.92;68.64;96757.81;616480;230;64562;-76
2022/05/18 05:12:35;;;;;;;;;;;;;;;22.90;69.22;96765.33;616398;230;65358;-76
2022/05/18 05:15:03;;;;;;;;;;;;;;;22.91;67.68;96769.59;616309;230;67111;-76
2022/05/18 05:17:30;;;;;;;;;;;;;;;22.92;67.74;96771.20;616445;230;67148;-75
2022/05/18 05:19:59;;;;;;;;;;;;;;;22.91;69.07;96764.23;616233;230;65108;-76
2022/05/18 05:22:28;;;;;;;;;;;;;;;22.91;68.10;96766.92;615970;230;64841;-76
2022/05/18 05:24:55;;;;;;;;;;;;;;;22.91;69.47;96774.95;616423;230;66910;-76
2022/05/18 05:27:24;;;;;;;;;;;;;;;22.91;68.85;96777.63;616470;230;46427;-76
2022/05/18 05:29:52;;;;;;;;;;;;;;;22.92;68.23;96769.32;616509;229;67066;-76
2022/05/18 05:32:19;;;;;;;;;;;;;;;22.90;68.83;96776.84;616461;230;66841;-76
2022/05/18 05:34:47;;;;;;;;;;;;;;;22.91;67.54;96783.78;616363;230;65409;-75
2022/05/18 05:37:14;;;;;;;;;;;;;;;22.92;68.55;96787.28;616372;230;66758;-76
2022/05/18 05:39:42;;;;;;;;;;;;;;;22.90;68.42;96779.52;605752;230;69855;-76
2022/05/18 05:42:10;;;;;;;;;;;;;;;22.90;68.33;96787.56;616180;230;65117;-76
2022/05/18 05:44:37;;;;;;;;;;;;;;;22.90;69.25;96794.81;616210;230;67313;-76
2022/05/18 05:47:05;;;;;;;;;;;;;;;22.90;68.72;96797.48;616406;230;64906;-76
2022/05/18 05:49:32;;;;;;;;;;;;;;;22.90;68.82;96800.17;616445;230;65158;-76
2022/05/18 05:52:00;;;;;;;;;;;;;;;22.90;69.01;96802.84;616439;230;67059;-76
2022/05/18 05:54:27;;;;;;;;;;;;;;;22.89;69.13;96807.42;616402;230;66961;-76
2022/05/18 05:56:55;;;;;;;;;;;;;;;22.89;68.21;96798.55;615936;230;65274;-75
2022/05/18 05:59:23;;;;;;;;;;;;;;;22.90;66.57;96802.84;617577;228;64812;-75
2022/05/18 06:01:50;;;;;;;;;;;;;;;22.92;67.49;96808.72;618379;229;66694;-74
2022/05/18 06:04:18;;;;;;;;;;;;;;;22.91;67.71;96812.47;616926;229;63120;-72
2022/05/18 06:06:46;;;;;;;;;;;;;;;22.90;67.85;96813.56;617130;230;67064;-71
2022/05/18 06:09:13;;;;;;;;;;;;;;;22.90;66.87;96813.56;616717;229;66882;-75
2022/05/18 06:11:41;;;;;;;;;;;;;;;22.89;67.68;96811.95;616367;230;65459;-72
2022/05/18 06:14:08;;;;;;;;;;;;;;;22.89;68.02;96818.13;616410;230;67053;-73
2022/05/18 06:16:36;;;;;;;;;;;;;;;22.90;66.44;96824.28;616439;230;66921;-74
2022/05/18 06:19:03;;;;;;;;;;;;;;;22.89;67.84;96823.49;616291;229;65398;-75
2022/05/18 06:21:31;;;;;;;;;;;;;;;22.90;68.57;96835.80;616423;230;67879;-72
2022/05/18 06:23:58;;;;;;;;;;;;;;;22.90;68.08;96826.96;616450;230;66665;-73
2022/05/18 06:26:27;;;;;;;;;;;;;;;22.90;68.09;96840.36;616251;230;65376;-71
2022/05/18 06:28:57;;;;;;;;;;;;;;;22.90;67.65;96835.80;616266;230;48123;-72
2022/05/18 06:31:25;;;;;;;;;;;;;;;22.90;67.93;96841.16;616315;230;67354;-72
2022/05/18 06:33:52;;;;;;;;;;;;;;;22.90;67.64;96835.80;616247;230;65146;-73
2022/05/18 06:36:20;;;;;;;;;;;;;;;22.92;67.78;96844.35;613886;230;64937;-72
2022/05/18 06:38:47;;;;;;;;;;;;;;;22.92;67.84;96835.52;611772;232;64583;-75
2022/05/18 06:41:24;;;;;;;;;;;;;;;22.94;65.54;96842.16;611693;232;65155;-73
2022/05/18 06:43:53;;;;;;;;;;;;;;;22.95;66.48;96842.98;611758;232;64921;-69
2022/05/18 06:46:20;;;;;;;;;;;;;;;22.96;66.20;96839.23;611734;232;67065;-72
2022/05/18 06:48:48;;;;;;;;;;;;;;;22.97;66.81;96844.32;611762;232;65615;-75
2022/05/18 06:51:19;;;;;;;;;;;;;;;22.98;65.63;96839.75;611752;232;64239;-73
2022/05/18 06:53:47;;;;;;;;;;;;;;;22.98;65.45;96845.11;611730;232;66928;-72
2022/05/18 06:56:15;;;;;;;;;;;;;;;22.99;67.11;96849.38;611663;232;65478;-72
2022/05/18 06:58:42;;;;;;;;;;;;;;;22.99;66.70;96850.17;611700;232;65112;-71
2022/05/18 07:01:10;;;;;;;;;;;;;;;23.01;67.70;96847.21;611737;232;64679;-72
2022/05/18 07:03:37;;;;;;;;;;;;;;;22.99;68.05;96850.17;611688;231;63715;-73
2022/05/18 07:06:05;;;;;;;;;;;;;;;23.01;68.45;96856.05;611795;232;64826;-73
2022/05/18 07:08:33;;;;;;;;;;;;;;;23.00;68.37;96848.31;611727;232;64753;-73
2022/05/18 07:11:03;;;;;;;;;;;;;;;23.01;68.28;96852.58;611782;232;63447;-72
2022/05/18 07:13:31;;;;;;;;;;;;;;;23.01;68.55;96855.25;611630;232;67035;-72
2022/05/18 07:15:59;;;;;;;;;;;;;;;23.01;68.25;96861.41;611678;232;64725;-74
2022/05/18 07:18:29;;;;;;;;;;;;;;;23.02;68.31;96854.16;611794;232;65221;-73
2022/05/18 07:20:57;;;;;;;;;;;;;;;23.02;67.79;96854.16;611572;232;65097;-70
2022/05/18 07:23:25;;;;;;;;;;;;;;;23.03;67.15;96855.77;613796;230;67124;-74
2022/05/18 07:25:54;;;;;;;;;;;;;;;23.03;68.08;96851.20;616399;230;63881;-70
2022/05/18 07:28:21;;;;;;;;;;;;;;;23.04;67.77;96855.47;616416;230;67014;-75
2022/05/18 07:30:50;;;;;;;;;;;;;;;23.04;67.75;96855.47;616388;230;67007;-76
2022/05/18 07:33:18;;;;;;;;;;;;;;;23.04;67.80;96858.15;616391;230;65366;-74
2022/05/18 07:35:47;;;;;;;;;;;;;;;23.06;67.20;96855.19;616410;230;67042;-73
2022/05/18 07:38:14;;;;;;;;;;;;;;;23.07;66.88;96858.66;616326;230;66651;-71
2022/05/18 07:40:42;;;;;;;;;;;;;;;23.07;65.89;96859.45;616478;230;65498;-71
2022/05/18 07:43:09;;;;;;;;;;;;;;;23.09;66.46;96854.61;616328;230;67047;-69
2022/05/18 07:45:37;;;;;;;;;;;;;;;23.09;66.12;96849.25;616260;230;65003;-74
2022/05/18 07:48:04;;;;;;;;;;;;;;;23.11;68.18;96855.13;616322;230;65125;-74
2022/05/18 07:50:32;;;;;;;;;;;;;;;23.11;65.64;96856.98;616380;230;67047;-72
2022/05/18 07:52:59;;;;;;;;;;;;;;;23.12;65.70;96856.71;616399;230;64903;-72
2022/05/18 07:55:27;;;;;;;;;;;;;;;23.13;65.89;96860.98;616420;230;65232;-71
2022/05/18 07:57:54;;;;;;;;;;;;;;;23.14;65.99;96867.95;616290;230;67029;-73
2022/05/18 08:00:23;;;;;;;;;;;;;;;23.14;66.19;96873.31;616342;230;66730;-72
2022/05/18 08:02:51;;;;;;;;;;;;;;;23.15;66.18;96896.34;614820;230;63017;-73
2022/05/18 08:05:19;;;;;;;;;;;;;;;23.17;66.26;96896.06;611894;232;64566;-72
2022/05/18 08:07:47;;;;;;;;;;;;;;;23.17;66.32;96914.83;611936;232;64872;-72
2022/05/18 08:15:48;;;;;;;;;;;;;;;23.18;65.67;96946.70;610334;232;66911;-73
2022/05/18 08:18:17;;;;;;;;;;;;;;;23.18;65.16;96960.10;610104;232;65327;-74
2022/05/18 08:20:45;;;;;;;;;;;;;;;23.20;64.95;96971.34;609875;232;67246;-75
2022/05/18 08:23:15;;;;;;;;;;;;;;;23.21;64.96;96996.27;601949;232;66909;-74
2022/05/18 08:25:46;;;;;;;;;;;;;;;23.21;64.75;96997.06;610022;232;65504;-74
2022/05/18 08:28:15;;;;;;;;;;;;;;;23.22;64.35;97017.45;609980;232;67150;-76
2022/05/18 08:30:44;;;;;;;;;;;;;;;23.23;64.46;97020.92;610059;232;67084;-76
2022/05/18 08:33:13;;;;;;;;;;;;;;;23.24;64.14;97038.59;610071;232;62991;-74
2022/05/18 08:35:46;;;;;;;;;;;;;;;23.25;64.15;97043.69;609996;232;67066;-74
2022/05/18 08:38:14;;;;;;;;;;;;;;;23.26;64.15;97052.52;610049;232;66929;-73
2022/05/18 08:40:46;;;;;;;;;;;;;;;23.26;63.72;97068.61;610003;232;63887;-72
2022/05/18 08:43:16;;;;;;;;;;;;;;;23.26;64.04;97077.45;610041;232;64739;-73
2022/05/18 08:45:47;;;;;;;;;;;;;;;23.26;64.28;97080.13;610017;231;64268;-71
2022/05/18 08:48:16;;;;;;;;;;;;;;;23.28;63.55;97071.02;610018;232;65538;-74
2022/05/18 08:50:44;;;;;;;;;;;;;;;23.28;63.92;97077.17;609891;232;67040;-73
2022/05/18 08:53:27;;;;;;;;;;;;;;;23.29;63.08;97083.33;610036;232;66350;-73
2022/05/18 08:56:01;;;;;;;;;;;;;;;23.30;62.66;97085.74;609196;232;62974;-75
2022/05/18 08:58:33;;;;;;;;;;;;;;;23.30;62.72;97085.74;612781;231;68021;-74
2022/05/18 09:01:02;;;;;;;;;;;;;;;23.31;62.94;97086.53;606149;232;70473;-75
2022/05/18 09:03:34;;;;;;;;;;;;;;;23.31;63.27;97091.90;612079;230;65514;-76
2022/05/18 09:06:12;;;;;;;;;;;;;;;23.30;63.14;97099.15;610547;232;66560;-75
2022/05/18 09:08:41;;;;;;;;;;;;;;;23.31;63.48;97113.35;614766;230;66846;-73
2022/05/18 09:11:10;;;;;;;;;;;;;;;23.32;63.42;97118.41;616245;230;65326;-75
2022/05/18 09:13:38;;;;;;;;;;;;;;;23.33;64.23;97127.28;615945;230;65651;-76
2022/05/18 09:16:16;;;;;;;;;;;;;;;23.34;63.83;97140.39;616401;230;66916;-76
2022/05/18 09:18:49;;;;;;;;;;;;;;;23.33;63.81;97143.37;616472;230;65294;-76
2022/05/18 09:21:26;;;;;;;;;;;;;;;23.34;64.08;97145.75;616404;230;65191;-75
2022/05/18 09:24:01;;;;;;;;;;;;;;;23.34;63.82;97150.32;615982;230;66959;-75
2022/05/18 09:26:36;;;;;;;;;;;;;;;23.35;63.81;97147.34;616170;230;63032;-76
2022/05/18 09:29:12;;;;;;;;;;;;;;;23.35;63.84;97158.06;615446;229;66256;-75
2022/05/18 09:31:41;;;;;;;;;;;;;;;23.37;63.88;97168.52;616318;230;66993;-75
2022/05/18 09:34:28;;;;;;;;;;;;;;;23.38;63.94;97176.30;616473;230;65321;-75
2022/05/18 09:36:58;;;;;;;;;;;;;;;23.39;64.09;97174.41;616397;230;67266;-72
2022/05/18 09:39:27;;;;;;;;;;;;;;;23.38;63.69;97176.30;615598;230;64795;-76
2022/05/18 09:41:59;;;;;;;;;;;;;;;23.37;63.94;97169.31;616408;230;65137;-75
2022/05/18 09:44:28;;;;;;;;;;;;;;;23.38;64.00;97183.52;616400;230;64870;-75
2022/05/18 09:46:56;;;;;;;;;;;;;;;23.40;64.48;97192.09;616044;230;64880;-75
2022/05/18 09:49:28;;;;;;;;;;;;;;;23.41;64.95;97197.19;616447;230;65553;-74
2022/05/18 09:51:57;;;;;;;;;;;;;;;23.41;65.03;97189.14;616253;230;67285;-75
2022/05/18 09:54:25;;;;;;;;;;;;;;;23.40;64.22;97195.57;616395;230;65778;-79
2022/05/18 09:56:54;;;;;;;;;;;;;;;23.42;63.99;97196.09;616359;230;64026;-75
2022/05/18 09:59:22;;;;;;;;;;;;;;;23.42;64.13;97189.94;616351;230;64831;-74
2022/05/18 10:07:32;;;;;;;;;;;;;;;23.41;63.84;97193.71;616331;230;65011;-73
2022/05/18 10:10:02;;;;;;;;;;;;;;;23.42;63.71;97195.30;616419;230;66979;-74
2022/05/18 10:12:49;;;;;;;;;;;;;;;23.43;63.49;97196.89;615646;230;65726;-73
2022/05/18 10:15:28;;;;;;;;;;;;;;;23.43;63.40;97204.94;603181;235;65284;-73
2022/05/18 10:17:57;;;;;;;;;;;;;;;23.42;63.25;97216.76;603192;235;67241;-73
2022/05/18 10:20:28;;;;;;;;;;;;;;;23.44;63.84;97226.13;608907;230;65316;-75
2022/05/18 10:22:56;;;;;;;;;;;;;;;23.43;63.23;97232.55;616156;230;67118;-73
2022/05/18 10:25:29;;;;;;;;;;;;;;;23.45;63.24;97243.02;616379;230;67226;-74
2022/05/18 10:27:57;;;;;;;;;;;;;;;23.43;63.05;97240.59;616344;229;66228;-74
2022/05/18 10:30:29;;;;;;;;;;;;;;;23.42;63.00;97233.64;616387;230;64846;-77
2022/05/18 10:32:58;;;;;;;;;;;;;;;23.45;62.33;97226.92;616442;230;64839;-75
2022/05/18 10:35:37;;;;;;;;;;;;;;;23.46;61.78;97229.33;616356;230;65292;-76
2022/05/18 10:38:06;;;;;;;;;;;;;;;23.47;61.92;97222.88;616483;230;64530;-74
2022/05/18 10:40:33;;;;;;;;;;;;;;;23.48;62.27;97231.72;615734;230;64842;-75
2022/05/18 10:43:21;;;;;;;;;;;;;;;23.47;62.27;97241.65;616342;230;63031;-74
2022/05/18 10:45:58;;;;;;;;;;;;;;;23.48;62.72;97240.55;616353;230;67297;-76
2022/05/18 10:48:27;;;;;;;;;;;;;;;23.49;62.78;97246.75;616378;230;64752;-74
2022/05/18 10:51:06;;;;;;;;;;;;;;;23.49;62.54;97252.11;616451;230;65348;-73
2022/05/18 10:53:36;;;;;;;;;;;;;;;23.50;62.72;97256.38;616443;230;67136;-77
2022/05/18 10:56:05;;;;;;;;;;;;;;;23.49;62.87;97257.48;616389;230;66899;-75
2022/05/18 10:58:40;;;;;;;;;;;;;;;23.50;62.90;97256.38;616371;230;64874;-76
2022/05/18 11:01:15;;;;;;;;;;;;;;;23.49;62.76;97284.30;616438;230;67849;-75
2022/05/18 11:03:56;;;;;;;;;;;;;;;23.49;62.86;97276.25;613056;230;64817;-76
2022/05/18 11:06:25;;;;;;;;;;;;;;;23.49;63.08;97290.46;610812;232;62993;-77
2022/05/18 11:08:53;;;;;;;;;;;;;;;23.50;62.70;97304.67;610042;232;67225;-72
2022/05/18 11:11:28;;;;;;;;;;;;;;;23.50;62.83;97299.30;609998;232;66871;-75
2022/05/18 11:14:14;;;;;;;;;;;;;;;23.49;62.80;97308.44;610070;232;62948;-76
2022/05/18 11:16:55;;;;;;;;;;;;;;;23.50;63.36;97299.30;610038;232;67225;-75
2022/05/18 11:19:36;;;;;;;;;;;;;;;23.51;63.52;97311.63;610029;232;64846;-75
2022/05/18 11:22:20;;;;;;;;;;;;;;;23.51;63.10;97311.63;610015;232;65380;-72
2022/05/18 11:24:59;;;;;;;;;;;;;;;23.50;62.78;97312.72;600189;236;66884;-79
2022/05/18 11:27:30;;;;;;;;;;;;;;;23.47;62.77;97316.75;583906;242;66750;-73
2022/05/18 11:29:59;;;;;;;;;;;;;;;23.48;63.14;97331.76;610174;231;65420;-73
2022/05/18 11:32:46;;;;;;;;;;;;;;;23.46;61.81;97333.11;609858;231;45558;-73
2022/05/18 11:35:24;;;;;;;;;;;;;;;23.46;60.23;97339.30;610076;232;65242;-73
2022/05/18 11:38:05;;;;;;;;;;;;;;;23.49;60.55;97356.72;610037;232;65477;-73
2022/05/18 11:40:34;;;;;;;;;;;;;;;23.50;60.66;97369.05;610054;232;67182;-73
2022/05/18 11:43:25;;;;;;;;;;;;;;;23.51;62.19;97377.89;609977;230;67166;-73
2022/05/18 11:45:37;;;;;;;;;;;;;;;23.52;61.85;97395.58;609545;232;65180;-72
2022/05/18 11:48:18;;;;;;;;;;;;;;;23.52;62.27;97387.53;610044;232;67233;-75
2022/05/18 11:54:09;;;;;;;;;;;;;;;23.47;60.90;97405.27;610210;232;37105;-70
2022/05/18 11:56:39;;;;;;;;;;;;;;;23.47;61.24;97407.95;609990;232;66861;-71
2022/05/18 12:02:14;;;;;;;;;;;;;;;23.47;61.64;97410.64;610063;231;46132;-72
2022/05/18 12:04:52;;;;;;;;;;;;;;;23.46;61.69;97411.73;610046;232;65051;-72
2022/05/18 12:07:29;;;;;;;;;;;;;;;23.47;62.29;97423.25;609988;232;67812;-75
2022/05/18 12:10:14;;;;;;;;;;;;;;;23.47;61.98;97428.62;609866;231;64223;-72
2022/05/18 12:12:47;;;;;;;;;;;;;;;23.46;62.10;97422.45;610130;232;67321;-73
2022/05/18 12:15:25;;;;;;;;;;;;;;;23.47;62.08;97424.05;610008;232;67052;-73
2022/05/18 12:18:06;;;;;;;;;;;;;;;23.46;61.83;97422.45;609916;232;63233;-73
2022/05/18 12:20:41;;;;;;;;;;;;;;;23.46;60.92;97435.87;610072;232;68058;-73
2022/05/18 12:23:13;;;;;;;;;;;;;;;23.46;62.04;97435.87;610006;232;64840;-73
2022/05/18 12:25:41;;;;;;;;;;;;;;;23.48;61.86;97435.58;610003;232;65512;-72
2022/05/18 12:28:09;;;;;;;;;;;;;;;23.47;62.69;97442.03;609970;232;65830;-72
2022/05/18 12:30:39;;;;;;;;;;;;;;;23.46;61.10;97449.28;610068;232;67101;-72
2022/05/18 12:33:07;;;;;;;;;;;;;;;23.47;62.67;97448.19;610082;232;64056;-73
2022/05/18 12:35:36;;;;;;;;;;;;;;;23.47;62.30;97445.51;609967;232;67120;-73
2022/05/18 12:38:21;;;;;;;;;;;;;;;23.48;63.21;97446.30;610030;232;67195;-73
2022/05/18 12:40:50;;;;;;;;;;;;;;;23.47;62.83;97444.71;609900;231;63887;-73
2022/05/18 12:43:26;;;;;;;;;;;;;;;23.48;62.16;97440.94;610014;231;67126;-73
2022/05/18 12:45:58;;;;;;;;;;;;;;;23.48;62.69;97448.98;610097;232;64578;-73
2022/05/18 12:48:40;;;;;;;;;;;;;;;23.48;61.68;97446.30;610075;232;63124;-73
2022/05/18 12:51:25;;;;;;;;;;;;;;;23.48;62.38;97446.30;609981;232;67238;-73
2022/05/18 12:53:54;;;;;;;;;;;;;;;23.48;63.12;97463.20;609997;232;65121;-73
2022/05/18 12:56:24;;;;;;;;;;;;;;;23.48;62.43;97467.77;610053;231;65377;-73
2022/05/18 12:58:52;;;;;;;;;;;;;;;23.48;61.36;97462.40;609971;232;65108;-76
2022/05/18 13:01:21;;;;;;;;;;;;;;;23.49;62.24;97470.19;610065;232;64613;-71
2022/05/18 13:04:01;;;;;;;;;;;;;;;23.50;61.73;97468.30;612214;230;63082;-73
2022/05/18 13:06:32;;;;;;;;;;;;;;;23.48;61.90;97460.52;610567;229;67142;-72
2022/05/18 13:09:10;;;;;;;;;;;;;;;23.49;61.97;97464.02;612692;230;67603;-73
2022/05/18 13:11:40;;;;;;;;;;;;;;;23.49;61.68;97462.14;615553;230;66018;-73
2022/05/18 13:14:09;;;;;;;;;;;;;;;23.51;61.46;97463.73;616431;230;64368;-75
2022/05/18 13:16:41;;;;;;;;;;;;;;;23.51;61.40;97456.48;615728;230;66666;-72
2022/05/18 13:19:22;;;;;;;;;;;;;;;23.52;61.20;97452.73;616366;230;65325;-72
2022/05/18 13:21:54;;;;;;;;;;;;;;;23.52;62.30;97451.91;616389;230;67040;-73
2022/05/18 13:24:24;;;;;;;;;;;;;;;23.53;62.34;97448.97;616441;230;66702;-72
2022/05/18 13:26:51;;;;;;;;;;;;;;;23.53;62.00;97470.42;616125;230;65370;-73